Terminal Aerodrome Forecast
Issued by NWS Atlanta, GA

Home | Current Version | Previous Version | Text Only | Print | Product List | Glossary On
Versions: 1 2 3 4 5 6 7 8 9 10 11 12 13 14 15 16 17 18 19 20
000
FTUS42 KFFC 042320
TAFMCN
TAF
KMCN 042320Z 0500/0524 25005KT P6SM SCT070
     FM050100 00000KT P6SM FEW080 FEW250
      TEMPO 0509/0511 6SM BR
     FM051500 24007KT P6SM SCT050 SCT250 PROB30 0520/0523 6SM TSRA
      BKN050CB=

USA.gov is the U.S. government's official web portal to all federal, state and local government web resources and services.